createdAt,value
2023-11-25T00:00:07.741Z,3.88
2023-11-25T00:02:39.143Z,3.79
2023-11-25T00:05:06.821Z,3.76
2023-11-25T00:07:34.462Z,3.78
2023-11-25T00:10:01.617Z,3.70
2023-11-25T00:12:29.068Z,3.68
2023-11-25T00:14:56.107Z,3.50
2023-11-25T00:17:25.254Z,3.54
2023-11-25T00:19:52.334Z,3.51
2023-11-25T00:22:19.553Z,3.48
2023-11-25T00:24:46.541Z,3.48
2023-11-25T00:27:15.075Z,3.46
2023-11-25T00:29:42.786Z,3.43
2023-11-25T00:32:09.939Z,3.28
2023-11-25T00:34:37.942Z,3.40
2023-11-25T00:37:05.516Z,3.49
2023-11-25T00:39:32.622Z,3.45
2023-11-25T00:41:59.658Z,3.28
2023-11-25T00:44:26.864Z,3.40
2023-11-25T00:46:53.918Z,3.48
2023-11-25T00:49:21.046Z,3.49
2023-11-25T00:51:48.026Z,3.45
2023-11-25T00:54:15.012Z,3.31
2023-11-25T00:56:42.626Z,3.41
2023-11-25T00:59:09.575Z,3.50
2023-11-25T01:01:37.017Z,3.52
2023-11-25T01:04:04.835Z,3.36
2023-11-25T01:06:31.961Z,3.40
2023-11-25T01:08:58.921Z,3.34
2023-11-25T01:11:25.972Z,3.56
2023-11-25T01:13:52.962Z,3.64
2023-11-25T01:16:20.151Z,3.64
2023-11-25T01:18:47.388Z,3.54
2023-11-25T01:21:14.643Z,3.52
2023-11-25T01:23:41.642Z,3.46
2023-11-25T01:26:09.698Z,3.45
2023-11-25T01:28:38.430Z,3.54
2023-11-25T01:31:06.312Z,3.40
2023-11-25T01:33:33.319Z,3.45
2023-11-25T01:36:00.346Z,3.30
2023-11-25T01:38:27.331Z,3.37
2023-11-25T01:40:56.822Z,3.32
2023-11-25T01:43:27.075Z,3.23
2023-11-25T01:45:57.816Z,3.30
2023-11-25T01:48:26.550Z,3.12
2023-11-25T01:50:53.762Z,3.14
2023-11-25T01:53:21.344Z,3.11
2023-11-25T01:55:52.252Z,3.09
2023-11-25T01:58:23.703Z,3.10
2023-11-25T02:00:50.847Z,2.97
2023-11-25T02:03:18.720Z,3.11
2023-11-25T02:05:46.519Z,2.97
2023-11-25T02:08:13.977Z,2.96
2023-11-25T02:10:41.229Z,2.91
2023-11-25T02:13:11.526Z,2.80
2023-11-25T02:15:41.122Z,2.97
2023-11-25T02:18:12.098Z,2.84
2023-11-25T02:20:43.614Z,2.87
2023-11-25T02:23:23.655Z,2.88
2023-11-25T02:25:53.749Z,2.71
2023-11-25T02:28:21.719Z,2.57
2023-11-25T02:30:49.691Z,2.63
2023-11-25T02:33:17.638Z,2.64
2023-11-25T02:35:47.621Z,2.64
2023-11-25T02:38:15.631Z,2.59
2023-11-25T02:40:45.892Z,2.50
2023-11-25T02:43:13.589Z,2.64
2023-11-25T02:45:40.899Z,2.54
2023-11-25T02:48:09.218Z,2.55
2023-11-25T02:50:36.310Z,2.56
2023-11-25T02:53:05.590Z,2.67
2023-11-25T02:55:32.666Z,2.55
2023-11-25T02:57:59.644Z,2.59
2023-11-25T03:00:30.060Z,2.66
2023-11-25T03:03:08.821Z,2.50
2023-11-25T03:05:38.265Z,2.56
2023-11-25T03:08:07.476Z,2.60
2023-11-25T03:10:34.735Z,2.59
2023-11-25T03:13:02.140Z,2.57
2023-11-25T03:15:29.123Z,2.53
2023-11-25T03:17:56.833Z,2.51
2023-11-25T03:20:24.569Z,2.57
2023-11-25T03:22:51.849Z,2.34
2023-11-25T03:25:18.856Z,2.60
2023-11-25T03:27:45.827Z,2.47
2023-11-25T03:30:13.849Z,2.50
2023-11-25T03:32:40.944Z,2.44
2023-11-25T03:35:08.413Z,2.46
2023-11-25T03:37:35.428Z,2.23
2023-11-25T03:40:02.398Z,2.26
2023-11-25T03:42:29.353Z,2.36
2023-11-25T03:44:56.474Z,2.23
2023-11-25T03:47:23.937Z,2.17
2023-11-25T03:49:50.941Z,2.22
2023-11-25T03:52:18.691Z,2.22
2023-11-25T03:54:45.643Z,2.28
2023-11-25T03:57:12.661Z,2.18
2023-11-25T03:59:39.660Z,2.08
2023-11-25T04:02:08.236Z,2.25
2023-11-25T04:04:35.836Z,2.06
2023-11-25T04:07:02.823Z,2.03
2023-11-25T04:09:30.061Z,2.05
2023-11-25T04:11:57.035Z,2.13
2023-11-25T04:14:26.724Z,2.07
2023-11-25T04:16:53.688Z,2.05
2023-11-25T04:19:20.727Z,2.04
2023-11-25T04:21:49.014Z,2.02
2023-11-25T04:24:15.983Z,1.96
2023-11-25T04:26:42.943Z,2.00
2023-11-25T04:29:12.366Z,1.87
2023-11-25T04:31:40.268Z,1.82
2023-11-25T04:34:07.251Z,1.79
2023-11-25T04:36:36.151Z,1.67
2023-11-25T04:39:03.274Z,1.75
2023-11-25T04:41:31.987Z,1.76
2023-11-25T04:43:59.099Z,1.83
2023-11-25T04:46:26.068Z,1.84
2023-11-25T04:48:52.989Z,1.72
2023-11-25T04:51:26.622Z,1.73
2023-11-25T04:53:53.544Z,1.72
2023-11-25T04:56:23.230Z,1.72
2023-11-25T04:58:50.201Z,1.78
2023-11-25T05:01:18.495Z,1.70
2023-11-25T05:03:45.936Z,1.80
2023-11-25T05:06:12.863Z,1.67
2023-11-25T05:08:43.204Z,1.71
2023-11-25T05:11:10.108Z,1.67
2023-11-25T05:13:38.221Z,1.64
2023-11-25T05:16:06.303Z,1.75
2023-11-25T05:18:33.233Z,1.74
2023-11-25T05:21:00.229Z,1.81
2023-11-25T05:23:27.149Z,1.84
2023-11-25T05:25:55.428Z,1.81
2023-11-25T05:28:23.285Z,1.82
2023-11-25T05:30:50.232Z,2.00
2023-11-25T05:33:17.215Z,2.00
2023-11-25T05:35:44.169Z,1.81
2023-11-25T05:38:11.110Z,1.94
2023-11-25T05:40:41.481Z,1.92
2023-11-25T05:43:10.871Z,1.93
2023-11-25T05:45:41.836Z,2.00
2023-11-25T05:48:08.942Z,2.04
2023-11-25T05:50:35.941Z,2.02
2023-11-25T05:53:07.293Z,1.97
2023-11-25T05:55:34.723Z,1.96
2023-11-25T05:58:02.468Z,2.08
2023-11-25T06:00:30.734Z,2.17
2023-11-25T06:02:57.867Z,2.16
2023-11-25T06:05:24.920Z,2.09
2023-11-25T06:07:52.117Z,2.24
2023-11-25T06:10:24.128Z,2.24
2023-11-25T06:12:51.084Z,2.26
2023-11-25T06:15:20.105Z,2.07
2023-11-25T06:17:48.188Z,2.00
2023-11-25T06:20:15.479Z,2.03
2023-11-25T06:22:42.513Z,2.06
2023-11-25T06:25:09.927Z,2.03
2023-11-25T06:27:36.939Z,2.21
2023-11-25T06:30:04.336Z,2.24
2023-11-25T06:32:31.791Z,2.17
2023-11-25T06:34:59.407Z,2.16
2023-11-25T06:37:26.500Z,2.18
2023-11-25T06:39:53.485Z,2.15
2023-11-25T06:42:21.412Z,2.21
2023-11-25T06:44:51.861Z,2.12
2023-11-25T06:47:18.947Z,2.10
2023-11-25T06:49:47.442Z,2.30
2023-11-25T06:52:14.468Z,2.33
2023-11-25T06:54:41.860Z,2.40
2023-11-25T06:57:11.795Z,2.12
2023-11-25T06:59:46.431Z,2.27
2023-11-25T07:02:13.968Z,2.22
2023-11-25T07:04:40.993Z,2.34
2023-11-25T07:07:08.443Z,2.27
2023-11-25T07:09:35.509Z,2.21
2023-11-25T07:12:05.346Z,2.29
2023-11-25T07:14:32.281Z,2.35
2023-11-25T07:16:59.275Z,2.03
2023-11-25T07:19:26.216Z,2.44
2023-11-25T07:21:53.241Z,1.79
2023-11-25T07:24:20.305Z,2.18
2023-11-25T07:26:52.702Z,2.16
2023-11-25T07:29:20.226Z,2.34
2023-11-25T07:31:48.100Z,2.36
2023-11-25T07:34:15.175Z,2.46
2023-11-25T07:36:43.910Z,2.38
2023-11-25T07:39:10.995Z,2.46
2023-11-25T07:41:38.021Z,2.51
2023-11-25T07:44:05.494Z,2.47
2023-11-25T07:46:32.711Z,2.45
2023-11-25T07:48:59.799Z,2.35
2023-11-25T07:51:26.980Z,2.29
2023-11-25T07:53:54.056Z,2.20
2023-11-25T07:56:21.245Z,2.26
2023-11-25T07:58:48.305Z,2.38
2023-11-25T08:01:18.171Z,2.13
2023-11-25T08:03:45.213Z,2.22
2023-11-25T08:06:14.247Z,2.30
2023-11-25T08:08:41.989Z,2.32
2023-11-25T08:11:09.877Z,2.30
2023-11-25T08:13:36.970Z,2.37
2023-11-25T08:16:05.548Z,2.38
2023-11-25T08:18:32.621Z,2.43
2023-11-25T08:20:59.955Z,2.43
2023-11-25T08:23:26.869Z,2.45
2023-11-25T08:25:53.828Z,2.67
2023-11-25T08:28:20.872Z,2.66
2023-11-25T08:30:47.829Z,2.68
2023-11-25T08:33:14.892Z,2.69
2023-11-25T08:35:42.479Z,2.87
2023-11-25T08:38:09.455Z,2.94
2023-11-25T08:40:36.542Z,2.82
2023-11-25T08:43:09.812Z,2.99
2023-11-25T08:45:39.009Z,3.02
2023-11-25T08:48:09.109Z,2.93
2023-11-25T08:50:37.038Z,3.10
2023-11-25T08:53:04.078Z,3.13
2023-11-25T08:55:31.467Z,3.08
2023-11-25T08:57:58.668Z,3.27
2023-11-25T09:00:25.961Z,3.27
2023-11-25T09:02:55.103Z,3.50
2023-11-25T09:05:27.265Z,3.44
2023-11-25T09:07:56.431Z,3.26
2023-11-25T09:10:24.427Z,3.44
2023-11-25T09:12:54.254Z,3.36
2023-11-25T09:15:22.391Z,3.40
2023-11-25T09:17:53.340Z,3.44
2023-11-25T09:20:22.747Z,3.36
2023-11-25T09:22:50.705Z,3.33
2023-11-25T09:25:18.273Z,3.46
2023-11-25T09:27:45.504Z,3.47
2023-11-25T09:30:14.998Z,3.51
2023-11-25T09:32:43.089Z,3.43
2023-11-25T09:35:12.391Z,3.47
2023-11-25T09:37:44.392Z,3.58
2023-11-25T09:40:15.425Z,3.69
2023-11-25T09:42:44.454Z,3.62
2023-11-25T09:45:13.654Z,3.73
2023-11-25T09:47:44.635Z,3.63
2023-11-25T09:50:12.191Z,3.74
2023-11-25T09:53:05.226Z,3.62
2023-11-25T09:55:33.829Z,3.54
2023-11-25T09:58:07.564Z,3.69
2023-11-25T10:00:36.375Z,3.73
2023-11-25T10:03:08.194Z,3.67
2023-11-25T10:05:35.599Z,3.65
2023-11-25T10:08:02.761Z,3.66
2023-11-25T10:10:30.286Z,3.64
2023-11-25T10:12:57.610Z,3.61
2023-11-25T10:15:24.687Z,3.59
2023-11-25T10:17:52.167Z,3.51
2023-11-25T10:20:23.649Z,3.52
2023-11-25T10:22:54.493Z,3.45
2023-11-25T10:25:25.533Z,3.62
2023-11-25T10:27:53.369Z,3.70
2023-11-25T10:30:22.309Z,3.50
2023-11-25T10:32:51.320Z,3.69
2023-11-25T10:35:19.980Z,3.61
2023-11-25T10:37:47.249Z,3.67
2023-11-25T10:40:18.185Z,3.77
2023-11-25T10:42:46.688Z,3.71
2023-11-25T10:45:18.260Z,3.69
2023-11-25T10:47:46.251Z,3.78
2023-11-25T10:50:16.591Z,3.76
2023-11-25T10:52:45.849Z,3.81
2023-11-25T10:55:13.779Z,3.72
2023-11-25T10:57:42.176Z,3.61
2023-11-25T11:00:13.119Z,3.61
2023-11-25T11:02:52.378Z,3.65
2023-11-25T11:05:30.650Z,3.59
2023-11-25T11:08:07.055Z,3.66
2023-11-25T11:10:55.771Z,3.77
2023-11-25T11:13:35.320Z,3.71
2023-11-25T11:16:21.147Z,3.79
2023-11-25T11:18:50.378Z,3.74
2023-11-25T11:21:20.421Z,3.79
2023-11-25T11:23:48.422Z,3.94
2023-11-25T11:26:52.689Z,3.79
2023-11-25T11:29:33.426Z,3.92
2023-11-25T11:32:08.152Z,3.91
2023-11-25T11:34:37.556Z,3.97
2023-11-25T11:37:07.787Z,3.96
2023-11-25T11:39:38.652Z,3.99
2023-11-25T11:42:23.782Z,4.10
2023-11-25T11:44:57.481Z,4.11
2023-11-25T11:47:25.917Z,4.15
2023-11-25T11:49:53.418Z,4.10
2023-11-25T11:52:20.486Z,4.06
2023-11-25T11:54:50.214Z,4.22
2023-11-25T11:57:18.556Z,4.28
2023-11-25T12:00:12.316Z,4.18
2023-11-25T12:02:43.949Z,4.17
2023-11-25T12:05:12.266Z,4.31
2023-11-25T12:07:40.135Z,4.26
2023-11-25T12:10:07.850Z,4.24
2023-11-25T12:12:44.933Z,4.23
2023-11-25T12:15:12.539Z,4.10
2023-11-25T12:17:43.451Z,4.08
2023-11-25T12:20:11.952Z,4.10
2023-11-25T12:22:39.445Z,4.12
2023-11-25T12:25:13.351Z,4.21
2023-11-25T12:27:47.497Z,4.21
2023-11-25T12:30:14.834Z,4.20
2023-11-25T12:32:43.447Z,4.31
2023-11-25T12:35:14.849Z,4.03
2023-11-25T12:37:50.962Z,4.19
2023-11-25T12:40:24.690Z,4.26
2023-11-25T12:42:53.625Z,4.24
2023-11-25T12:45:46.482Z,4.31
2023-11-25T12:48:17.551Z,4.43
2023-11-25T12:51:06.207Z,4.31
2023-11-25T12:53:34.090Z,4.48
2023-11-25T12:56:01.431Z,4.43
2023-11-25T12:58:28.799Z,4.26
2023-11-25T13:01:01.185Z,4.34
2023-11-25T13:03:35.480Z,4.48
2023-11-25T13:06:11.386Z,4.51
2023-11-25T13:08:46.092Z,4.68
2023-11-25T13:11:16.214Z,4.61
2023-11-25T13:13:43.236Z,4.62
2023-11-25T13:16:13.987Z,4.50
2023-11-25T13:18:49.216Z,4.60
2023-11-25T13:21:16.340Z,4.57
2023-11-25T13:23:43.279Z,4.59
2023-11-25T13:26:10.650Z,4.66
2023-11-25T13:28:40.711Z,4.59
2023-11-25T13:31:07.685Z,4.60
2023-11-25T13:33:35.572Z,4.65
2023-11-25T13:36:03.870Z,4.56
2023-11-25T13:38:30.808Z,4.63
2023-11-25T13:40:57.820Z,4.57
2023-11-25T13:43:25.005Z,4.70
2023-11-25T13:45:54.855Z,4.65
2023-11-25T13:48:21.902Z,4.68
2023-11-25T13:50:48.935Z,4.87
2023-11-25T13:53:19.240Z,4.76
2023-11-25T13:55:49.314Z,4.80
2023-11-25T13:58:19.698Z,4.86
2023-11-25T14:00:46.813Z,5.13
2023-11-25T14:03:15.423Z,5.14
2023-11-25T14:05:43.793Z,5.34
2023-11-25T14:08:18.937Z,5.29
2023-11-25T14:10:46.627Z,5.17
2023-11-25T14:13:14.901Z,5.13
2023-11-25T14:15:42.346Z,5.16
2023-11-25T14:18:11.597Z,5.08
2023-11-25T14:20:38.862Z,5.02
2023-11-25T14:23:06.720Z,4.81
2023-11-25T14:25:34.219Z,4.89
2023-11-25T14:28:03.159Z,4.89
2023-11-25T14:30:32.243Z,4.91
2023-11-25T14:32:59.849Z,4.84
2023-11-25T14:35:31.765Z,4.90
2023-11-25T14:38:01.644Z,4.67
2023-11-25T14:40:30.343Z,4.70
2023-11-25T14:42:57.568Z,4.85
2023-11-25T14:45:24.650Z,4.24
2023-11-25T14:47:52.455Z,4.72
2023-11-25T14:50:20.373Z,4.61
2023-11-25T14:52:47.627Z,4.50
2023-11-25T14:55:15.735Z,4.91
2023-11-25T14:57:43.960Z,4.92
2023-11-25T15:00:17.490Z,4.76
2023-11-25T15:02:44.750Z,4.59
2023-11-25T15:05:12.165Z,4.76
2023-11-25T15:07:39.300Z,4.60
2023-11-25T15:10:13.070Z,4.65
2023-11-25T15:12:40.105Z,4.62
2023-11-25T15:15:09.605Z,4.74
2023-11-25T15:17:36.911Z,4.62
2023-11-25T15:20:04.996Z,4.27
2023-11-25T15:22:32.111Z,4.72
2023-11-25T15:24:59.159Z,4.79
2023-11-25T15:27:27.536Z,4.90
2023-11-25T15:30:06.648Z,4.82
2023-11-25T15:32:33.975Z,4.13
2023-11-25T15:35:01.292Z,4.17
2023-11-25T15:37:28.414Z,4.59
2023-11-25T15:39:55.648Z,4.78
2023-11-25T15:42:22.584Z,4.88
2023-11-25T15:44:52.214Z,4.61
2023-11-25T15:47:20.012Z,4.82
2023-11-25T15:49:47.140Z,4.58
2023-11-25T15:52:14.242Z,4.81
2023-11-25T15:54:41.324Z,4.68
2023-11-25T15:57:12.286Z,4.70
2023-11-25T15:59:48.063Z,4.74
2023-11-25T16:02:17.184Z,4.55
2023-11-25T16:04:44.666Z,4.80
2023-11-25T16:07:14.131Z,4.87
2023-11-25T16:09:42.433Z,4.71
2023-11-25T16:12:12.009Z,4.71
2023-11-25T16:14:39.177Z,4.77
2023-11-25T16:17:07.211Z,4.67
2023-11-25T16:19:34.361Z,4.80
2023-11-25T16:22:01.470Z,4.65
2023-11-25T16:24:31.029Z,4.70
2023-11-25T16:26:58.798Z,4.84
2023-11-25T16:29:25.917Z,4.53
2023-11-25T16:31:53.263Z,4.28
2023-11-25T16:34:20.547Z,4.70
2023-11-25T16:36:49.737Z,4.54
2023-11-25T16:39:18.473Z,4.85
2023-11-25T16:41:50.770Z,4.77
2023-11-25T16:44:21.491Z,4.76
2023-11-25T16:46:48.954Z,4.88
2023-11-25T16:49:17.699Z,4.81
2023-11-25T16:51:44.777Z,4.71
2023-11-25T16:54:12.069Z,4.82
2023-11-25T16:56:39.582Z,4.70
2023-11-25T16:59:06.644Z,4.66
2023-11-25T17:01:33.797Z,4.68
2023-11-25T17:04:00.984Z,4.78
2023-11-25T17:06:29.150Z,4.82
2023-11-25T17:08:56.368Z,4.61
2023-11-25T17:11:25.786Z,4.68
2023-11-25T17:13:54.232Z,4.71
2023-11-25T17:16:21.896Z,4.81
2023-11-25T17:18:49.437Z,4.54
2023-11-25T17:21:16.524Z,4.69
2023-11-25T17:23:43.605Z,4.82
2023-11-25T17:26:11.143Z,4.80
2023-11-25T17:28:39.035Z,4.75
2023-11-25T17:31:06.584Z,4.67
2023-11-25T17:33:33.613Z,4.71
2023-11-25T17:36:00.734Z,4.75
2023-11-25T17:38:27.764Z,4.63
2023-11-25T17:40:54.776Z,4.87
2023-11-25T17:43:21.908Z,4.63
2023-11-25T17:45:48.974Z,4.86
2023-11-25T17:48:16.053Z,4.78
2023-11-25T17:50:43.405Z,4.90
2023-11-25T17:53:14.519Z,4.93
2023-11-25T17:55:42.317Z,4.91
2023-11-25T17:58:09.557Z,4.96
2023-11-25T18:00:42.080Z,4.71
2023-11-25T18:03:09.189Z,4.85
2023-11-25T18:05:37.357Z,4.90
2023-11-25T18:08:04.978Z,4.86
2023-11-25T18:10:32.385Z,4.68
2023-11-25T18:12:59.451Z,4.81
2023-11-25T18:15:26.564Z,4.72
2023-11-25T18:17:53.838Z,4.83
2023-11-25T18:20:20.997Z,4.81
2023-11-25T18:22:48.076Z,4.68
2023-11-25T18:25:15.353Z,4.85
2023-11-25T18:27:43.304Z,4.91
2023-11-25T18:30:10.616Z,4.73
2023-11-25T18:32:37.723Z,4.82
2023-11-25T18:35:06.147Z,4.78
2023-11-25T18:37:33.325Z,4.83
2023-11-25T18:40:00.975Z,4.95
2023-11-25T18:42:28.549Z,4.85
2023-11-25T18:44:55.669Z,4.76
2023-11-25T18:47:22.793Z,4.96
2023-11-25T18:49:49.903Z,4.75
2023-11-25T18:52:16.938Z,4.92
2023-11-25T18:54:44.902Z,4.96
2023-11-25T18:57:14.608Z,4.43
2023-11-25T18:59:46.543Z,4.90
2023-11-25T19:02:13.828Z,4.93
2023-11-25T19:04:41.710Z,4.91
2023-11-25T19:07:08.735Z,5.01
2023-11-25T19:09:35.895Z,4.98
2023-11-25T19:12:03.097Z,4.91
2023-11-25T19:14:31.525Z,4.95
2023-11-25T19:16:58.828Z,5.02
2023-11-25T19:19:26.024Z,4.98
2023-11-25T19:21:53.053Z,5.03
2023-11-25T19:24:20.159Z,5.04
2023-11-25T19:26:47.241Z,5.13
2023-11-25T19:29:15.532Z,5.13
2023-11-25T19:31:42.906Z,5.14
2023-11-25T19:34:10.060Z,5.13
2023-11-25T19:36:37.068Z,5.15
2023-11-25T19:39:06.053Z,5.13
2023-11-25T19:41:33.221Z,5.17
2023-11-25T19:44:00.884Z,5.15
2023-11-25T19:46:30.026Z,5.05
2023-11-25T19:48:57.609Z,5.25
2023-11-25T19:51:25.169Z,5.20
2023-11-25T19:53:52.443Z,5.29
2023-11-25T19:56:20.507Z,5.20
2023-11-25T19:58:47.836Z,5.21
2023-11-25T20:01:15.327Z,5.23
2023-11-25T20:03:42.698Z,5.25
2023-11-25T20:06:10.063Z,5.39
2023-11-25T20:08:37.144Z,5.21
2023-11-25T20:11:04.862Z,5.29
2023-11-25T20:13:32.055Z,5.23
2023-11-25T20:15:59.669Z,5.27
2023-11-25T20:18:27.365Z,5.40
2023-11-25T20:20:54.599Z,5.15
2023-11-25T20:23:23.155Z,5.40
2023-11-25T20:25:50.265Z,5.43
2023-11-25T20:28:17.973Z,5.28
2023-11-25T20:30:45.310Z,5.14
2023-11-25T20:33:12.526Z,5.16
2023-11-25T20:35:39.689Z,5.17
2023-11-25T20:38:06.854Z,5.25
2023-11-25T20:40:33.871Z,5.21
2023-11-25T20:43:01.019Z,5.23
2023-11-25T20:45:28.042Z,5.25
2023-11-25T20:47:55.063Z,5.30
2023-11-25T20:50:22.203Z,5.24
2023-11-25T20:52:49.357Z,5.30
2023-11-25T20:55:16.853Z,5.24
2023-11-25T20:57:44.496Z,5.27
2023-11-25T21:00:13.324Z,5.16
2023-11-25T21:02:40.912Z,5.02
2023-11-25T21:05:08.446Z,5.24
2023-11-25T21:07:35.562Z,5.16
2023-11-25T21:10:02.665Z,5.33
2023-11-25T21:12:29.649Z,5.11
2023-11-25T21:14:56.737Z,5.15
2023-11-25T21:17:24.074Z,5.23
2023-11-25T21:19:51.075Z,5.32
2023-11-25T21:22:19.559Z,5.33
2023-11-25T21:24:46.649Z,5.44
2023-11-25T21:27:13.631Z,5.12
2023-11-25T21:29:40.615Z,5.32
2023-11-25T21:32:09.643Z,5.24
2023-11-25T21:34:37.437Z,5.14
2023-11-25T21:37:05.822Z,5.05
2023-11-25T21:39:33.025Z,4.95
2023-11-25T21:42:03.505Z,5.06
2023-11-25T21:44:30.526Z,5.10
2023-11-25T21:46:58.836Z,5.12
2023-11-25T21:49:25.969Z,5.18
2023-11-25T21:51:52.940Z,5.09
2023-11-25T21:54:19.959Z,4.79
2023-11-25T21:56:47.063Z,4.99
2023-11-25T21:59:15.055Z,4.94
2023-11-25T22:01:42.578Z,4.87
2023-11-25T22:04:12.921Z,4.76
2023-11-25T22:06:40.301Z,4.96
2023-11-25T22:09:09.332Z,4.87
2023-11-25T22:11:36.468Z,4.90
2023-11-25T22:14:03.505Z,4.88
2023-11-25T22:16:30.568Z,4.91
2023-11-25T22:18:58.786Z,4.92
2023-11-25T22:21:25.888Z,4.82
2023-11-25T22:23:53.274Z,4.84
2023-11-25T22:26:26.933Z,4.82
2023-11-25T22:28:54.119Z,4.72
2023-11-25T22:31:22.386Z,4.76
2023-11-25T22:33:50.509Z,4.59
2023-11-25T22:36:25.556Z,4.74
2023-11-25T22:38:53.586Z,4.59
2023-11-25T22:41:22.189Z,4.63
2023-11-25T22:43:51.909Z,4.54
2023-11-25T22:46:21.695Z,4.59
2023-11-25T22:48:50.112Z,4.46
2023-11-25T22:51:19.974Z,4.44
2023-11-25T22:53:50.271Z,4.51
2023-11-25T22:56:17.362Z,4.42
2023-11-25T22:58:45.038Z,4.30
2023-11-25T23:01:18.596Z,4.31
2023-11-25T23:03:46.767Z,4.22
2023-11-25T23:06:13.847Z,4.18
2023-11-25T23:08:45.625Z,4.20
2023-11-25T23:11:12.896Z,4.26
2023-11-25T23:13:39.998Z,4.15
2023-11-25T23:16:07.122Z,4.21
2023-11-25T23:18:34.432Z,3.95
2023-11-25T23:21:01.420Z,4.11
2023-11-25T23:23:37.900Z,3.91
2023-11-25T23:26:10.624Z,4.04
2023-11-25T23:28:37.712Z,3.78
2023-11-25T23:31:08.572Z,3.80
2023-11-25T23:33:35.589Z,3.89
2023-11-25T23:36:02.589Z,3.79
2023-11-25T23:38:29.778Z,3.76
2023-11-25T23:40:57.675Z,3.71
2023-11-25T23:43:25.009Z,3.73
2023-11-25T23:45:52.002Z,3.66
2023-11-25T23:48:18.974Z,3.51
2023-11-25T23:50:46.051Z,3.63
2023-11-25T23:53:13.386Z,3.65
2023-11-25T23:55:40.825Z,3.52
2023-11-25T23:58:07.899Z,3.47
